sensor_id;sensor_type;location;lat;lon;timestamp;P1;durP1;ratioP1;P2;durP2;ratioP2
19812;SDS011;10066;48.108;11.448;2022-08-21T00:00:05;5.67;;;3.40;;
19812;SDS011;10066;48.108;11.448;2022-08-21T00:02:35;5.27;;;3.37;;
19812;SDS011;10066;48.108;11.448;2022-08-21T00:05:03;7.43;;;3.50;;
19812;SDS011;10066;48.108;11.448;2022-08-21T00:07:30;4.43;;;3.67;;
19812;SDS011;10066;48.108;11.448;2022-08-21T00:09:58;5.77;;;3.67;;
19812;SDS011;10066;48.108;11.448;2022-08-21T00:12:25;4.63;;;3.70;;
19812;SDS011;10066;48.108;11.448;2022-08-21T00:14:53;6.03;;;3.50;;
19812;SDS011;10066;48.108;11.448;2022-08-21T00:17:20;4.50;;;3.57;;
19812;SDS011;10066;48.108;11.448;2022-08-21T00:19:47;4.83;;;3.37;;
19812;SDS011;10066;48.108;11.448;2022-08-21T00:22:15;4.40;;;3.33;;
19812;SDS011;10066;48.108;11.448;2022-08-21T00:24:42;4.90;;;3.50;;
19812;SDS011;10066;48.108;11.448;2022-08-21T00:27:09;5.97;;;3.30;;
19812;SDS011;10066;48.108;11.448;2022-08-21T00:29:36;3.63;;;3.03;;
19812;SDS011;10066;48.108;11.448;2022-08-21T00:32:05;5.50;;;3.23;;
19812;SDS011;10066;48.108;11.448;2022-08-21T00:34:32;6.03;;;2.90;;
19812;SDS011;10066;48.108;11.448;2022-08-21T00:36:59;4.70;;;3.60;;
19812;SDS011;10066;48.108;11.448;2022-08-21T00:39:26;5.20;;;3.37;;
19812;SDS011;10066;48.108;11.448;2022-08-21T00:41:53;4.57;;;3.37;;
19812;SDS011;10066;48.108;11.448;2022-08-21T00:44:20;4.70;;;3.63;;
19812;SDS011;10066;48.108;11.448;2022-08-21T00:46:47;6.47;;;3.27;;
19812;SDS011;10066;48.108;11.448;2022-08-21T00:49:16;4.70;;;3.43;;
19812;SDS011;10066;48.108;11.448;2022-08-21T00:51:45;5.87;;;3.27;;
19812;SDS011;10066;48.108;11.448;2022-08-21T00:54:15;5.90;;;3.27;;
19812;SDS011;10066;48.108;11.448;2022-08-21T00:56:44;9.90;;;3.37;;
19812;SDS011;10066;48.108;11.448;2022-08-21T00:59:12;4.13;;;2.90;;
19812;SDS011;10066;48.108;11.448;2022-08-21T01:01:39;5.77;;;3.20;;
19812;SDS011;10066;48.108;11.448;2022-08-21T01:04:06;3.83;;;2.87;;
19812;SDS011;10066;48.108;11.448;2022-08-21T01:06:35;4.03;;;2.83;;
19812;SDS011;10066;48.108;11.448;2022-08-21T01:09:02;6.90;;;2.97;;
19812;SDS011;10066;48.108;11.448;2022-08-21T01:11:29;4.83;;;3.03;;
19812;SDS011;10066;48.108;11.448;2022-08-21T01:13:57;6.90;;;3.17;;
19812;SDS011;10066;48.108;11.448;2022-08-21T01:16:25;4.93;;;2.70;;
19812;SDS011;10066;48.108;11.448;2022-08-21T01:18:52;3.70;;;2.80;;
19812;SDS011;10066;48.108;11.448;2022-08-21T01:21:22;4.67;;;2.70;;
19812;SDS011;10066;48.108;11.448;2022-08-21T01:23:50;3.57;;;2.93;;
19812;SDS011;10066;48.108;11.448;2022-08-21T01:26:21;3.07;;;2.40;;
19812;SDS011;10066;48.108;11.448;2022-08-21T01:28:52;4.37;;;2.67;;
19812;SDS011;10066;48.108;11.448;2022-08-21T01:31:24;6.40;;;2.63;;
19812;SDS011;10066;48.108;11.448;2022-08-21T01:33:52;4.00;;;2.87;;
19812;SDS011;10066;48.108;11.448;2022-08-21T01:36:22;3.80;;;2.53;;
19812;SDS011;10066;48.108;11.448;2022-08-21T01:38:49;5.47;;;2.63;;
19812;SDS011;10066;48.108;11.448;2022-08-21T01:41:16;2.60;;;2.40;;
19812;SDS011;10066;48.108;11.448;2022-08-21T01:43:43;5.73;;;2.57;;
19812;SDS011;10066;48.108;11.448;2022-08-21T01:46:11;3.90;;;2.50;;
19812;SDS011;10066;48.108;11.448;2022-08-21T01:48:39;4.30;;;2.63;;
19812;SDS011;10066;48.108;11.448;2022-08-21T01:51:06;8.67;;;2.77;;
19812;SDS011;10066;48.108;11.448;2022-08-21T01:53:35;4.17;;;2.93;;
19812;SDS011;10066;48.108;11.448;2022-08-21T01:56:06;5.93;;;2.50;;
19812;SDS011;10066;48.108;11.448;2022-08-21T01:58:34;7.97;;;2.90;;
19812;SDS011;10066;48.108;11.448;2022-08-21T02:01:02;3.43;;;2.40;;
19812;SDS011;10066;48.108;11.448;2022-08-21T02:03:30;3.10;;;2.80;;
19812;SDS011;10066;48.108;11.448;2022-08-21T02:05:57;3.80;;;2.57;;
19812;SDS011;10066;48.108;11.448;2022-08-21T02:08:24;3.97;;;2.90;;
19812;SDS011;10066;48.108;11.448;2022-08-21T02:10:52;4.93;;;2.50;;
19812;SDS011;10066;48.108;11.448;2022-08-21T02:13:19;3.70;;;2.60;;
19812;SDS011;10066;48.108;11.448;2022-08-21T02:15:46;2.93;;;2.50;;
19812;SDS011;10066;48.108;11.448;2022-08-21T02:18:13;4.83;;;2.50;;
19812;SDS011;10066;48.108;11.448;2022-08-21T02:20:43;3.63;;;2.60;;
19812;SDS011;10066;48.108;11.448;2022-08-21T02:23:13;2.93;;;2.57;;
19812;SDS011;10066;48.108;11.448;2022-08-21T02:25:41;3.93;;;2.60;;
19812;SDS011;10066;48.108;11.448;2022-08-21T02:28:10;3.13;;;2.70;;
19812;SDS011;10066;48.108;11.448;2022-08-21T02:30:40;2.67;;;2.30;;
19812;SDS011;10066;48.108;11.448;2022-08-21T02:33:09;2.87;;;2.57;;
19812;SDS011;10066;48.108;11.448;2022-08-21T02:35:37;2.87;;;2.50;;
19812;SDS011;10066;48.108;11.448;2022-08-21T02:38:07;3.20;;;2.73;;
19812;SDS011;10066;48.108;11.448;2022-08-21T02:40:37;2.70;;;2.40;;
19812;SDS011;10066;48.108;11.448;2022-08-21T02:43:06;3.77;;;2.57;;
19812;SDS011;10066;48.108;11.448;2022-08-21T02:45:35;2.83;;;2.53;;
19812;SDS011;10066;48.108;11.448;2022-08-21T02:48:03;3.63;;;2.40;;
19812;SDS011;10066;48.108;11.448;2022-08-21T02:50:33;4.97;;;2.80;;
19812;SDS011;10066;48.108;11.448;2022-08-21T02:53:01;2.60;;;2.40;;
19812;SDS011;10066;48.108;11.448;2022-08-21T02:55:30;4.20;;;2.50;;
19812;SDS011;10066;48.108;11.448;2022-08-21T02:57:59;3.73;;;2.40;;
19812;SDS011;10066;48.108;11.448;2022-08-21T03:00:27;2.87;;;2.57;;
19812;SDS011;10066;48.108;11.448;2022-08-21T03:02:57;5.97;;;2.57;;
19812;SDS011;10066;48.108;11.448;2022-08-21T03:05:25;3.50;;;2.70;;
19812;SDS011;10066;48.108;11.448;2022-08-21T03:07:53;3.70;;;2.80;;
19812;SDS011;10066;48.108;11.448;2022-08-21T03:10:21;3.63;;;2.57;;
19812;SDS011;10066;48.108;11.448;2022-08-21T03:12:48;3.20;;;2.83;;
19812;SDS011;10066;48.108;11.448;2022-08-21T03:15:16;4.60;;;2.83;;
19812;SDS011;10066;48.108;11.448;2022-08-21T03:17:46;2.73;;;2.53;;
19812;SDS011;10066;48.108;11.448;2022-08-21T03:20:16;5.00;;;2.70;;
19812;SDS011;10066;48.108;11.448;2022-08-21T03:22:44;4.47;;;2.77;;
19812;SDS011;10066;48.108;11.448;2022-08-21T03:25:11;3.23;;;2.73;;
19812;SDS011;10066;48.108;11.448;2022-08-21T03:27:38;7.23;;;2.93;;
19812;SDS011;10066;48.108;11.448;2022-08-21T03:30:06;4.37;;;3.23;;
19812;SDS011;10066;48.108;11.448;2022-08-21T03:32:34;3.80;;;2.93;;
19812;SDS011;10066;48.108;11.448;2022-08-21T03:35:02;4.40;;;3.00;;
19812;SDS011;10066;48.108;11.448;2022-08-21T03:37:31;4.07;;;2.70;;
19812;SDS011;10066;48.108;11.448;2022-08-21T03:39:58;7.17;;;3.00;;
19812;SDS011;10066;48.108;11.448;2022-08-21T03:42:25;6.50;;;3.10;;
19812;SDS011;10066;48.108;11.448;2022-08-21T03:44:52;4.37;;;3.30;;
19812;SDS011;10066;48.108;11.448;2022-08-21T03:47:19;5.43;;;2.83;;
19812;SDS011;10066;48.108;11.448;2022-08-21T03:49:47;4.47;;;2.90;;
19812;SDS011;10066;48.108;11.448;2022-08-21T03:52:14;5.73;;;3.47;;
19812;SDS011;10066;48.108;11.448;2022-08-21T03:54:43;2.90;;;2.63;;
19812;SDS011;10066;48.108;11.448;2022-08-21T03:57:10;5.10;;;3.13;;
19812;SDS011;10066;48.108;11.448;2022-08-21T03:59:37;3.47;;;3.00;;
19812;SDS011;10066;48.108;11.448;2022-08-21T04:02:05;4.60;;;3.10;;
19812;SDS011;10066;48.108;11.448;2022-08-21T04:04:33;5.37;;;3.40;;
19812;SDS011;10066;48.108;11.448;2022-08-21T04:07:00;4.77;;;3.07;;
19812;SDS011;10066;48.108;11.448;2022-08-21T04:09:27;3.47;;;2.87;;
19812;SDS011;10066;48.108;11.448;2022-08-21T04:11:56;6.10;;;3.30;;
19812;SDS011;10066;48.108;11.448;2022-08-21T04:14:25;5.03;;;4.10;;
19812;SDS011;10066;48.108;11.448;2022-08-21T04:16:52;4.63;;;3.10;;
19812;SDS011;10066;48.108;11.448;2022-08-21T04:19:19;5.10;;;3.33;;
19812;SDS011;10066;48.108;11.448;2022-08-21T04:21:46;4.27;;;3.13;;
19812;SDS011;10066;48.108;11.448;2022-08-21T04:24:14;5.63;;;3.40;;
19812;SDS011;10066;48.108;11.448;2022-08-21T04:26:41;5.03;;;3.70;;
19812;SDS011;10066;48.108;11.448;2022-08-21T04:29:10;6.53;;;3.97;;
19812;SDS011;10066;48.108;11.448;2022-08-21T04:31:36;5.73;;;4.40;;
19812;SDS011;10066;48.108;11.448;2022-08-21T04:34:04;6.10;;;4.50;;
19812;SDS011;10066;48.108;11.448;2022-08-21T04:36:31;6.40;;;4.40;;
19812;SDS011;10066;48.108;11.448;2022-08-21T04:38:59;5.00;;;3.93;;
19812;SDS011;10066;48.108;11.448;2022-08-21T04:41:26;6.47;;;4.47;;
19812;SDS011;10066;48.108;11.448;2022-08-21T04:43:54;6.97;;;4.00;;
19812;SDS011;10066;48.108;11.448;2022-08-21T04:46:22;8.47;;;4.20;;
19812;SDS011;10066;48.108;11.448;2022-08-21T04:48:50;5.43;;;4.00;;
19812;SDS011;10066;48.108;11.448;2022-08-21T04:51:17;5.27;;;3.90;;
19812;SDS011;10066;48.108;11.448;2022-08-21T04:53:51;10.17;;;3.93;;
19812;SDS011;10066;48.108;11.448;2022-08-21T04:56:22;8.73;;;4.80;;
19812;SDS011;10066;48.108;11.448;2022-08-21T04:58:51;7.83;;;4.43;;
19812;SDS011;10066;48.108;11.448;2022-08-21T05:01:21;6.30;;;3.70;;
19812;SDS011;10066;48.108;11.448;2022-08-21T05:03:53;5.50;;;3.80;;
19812;SDS011;10066;48.108;11.448;2022-08-21T05:06:24;5.43;;;4.30;;
19812;SDS011;10066;48.108;11.448;2022-08-21T05:08:52;6.10;;;4.20;;
19812;SDS011;10066;48.108;11.448;2022-08-21T05:11:21;9.47;;;4.83;;
19812;SDS011;10066;48.108;11.448;2022-08-21T05:13:49;6.17;;;4.70;;
19812;SDS011;10066;48.108;11.448;2022-08-21T05:16:16;8.27;;;5.30;;
19812;SDS011;10066;48.108;11.448;2022-08-21T05:18:44;6.50;;;4.80;;
19812;SDS011;10066;48.108;11.448;2022-08-21T05:21:11;8.07;;;4.70;;
19812;SDS011;10066;48.108;11.448;2022-08-21T05:23:38;7.90;;;6.10;;
19812;SDS011;10066;48.108;11.448;2022-08-21T05:26:04;5.90;;;4.73;;
19812;SDS011;10066;48.108;11.448;2022-08-21T05:28:31;7.40;;;5.67;;
19812;SDS011;10066;48.108;11.448;2022-08-21T05:30:58;8.97;;;5.40;;
19812;SDS011;10066;48.108;11.448;2022-08-21T05:33:25;8.43;;;5.47;;
19812;SDS011;10066;48.108;11.448;2022-08-21T05:35:54;9.03;;;4.50;;
19812;SDS011;10066;48.108;11.448;2022-08-21T05:38:22;8.40;;;4.80;;
19812;SDS011;10066;48.108;11.448;2022-08-21T05:40:49;7.83;;;4.50;;
19812;SDS011;10066;48.108;11.448;2022-08-21T05:43:16;8.10;;;4.90;;
19812;SDS011;10066;48.108;11.448;2022-08-21T05:45:43;10.20;;;6.47;;
19812;SDS011;10066;48.108;11.448;2022-08-21T05:48:11;10.37;;;7.23;;
19812;SDS011;10066;48.108;11.448;2022-08-21T05:50:39;9.50;;;8.33;;
19812;SDS011;10066;48.108;11.448;2022-08-21T05:53:08;10.60;;;7.90;;
19812;SDS011;10066;48.108;11.448;2022-08-21T05:55:36;7.50;;;6.70;;
19812;SDS011;10066;48.108;11.448;2022-08-21T05:58:04;6.47;;;5.20;;
19812;SDS011;10066;48.108;11.448;2022-08-21T06:00:31;7.53;;;4.30;;
19812;SDS011;10066;48.108;11.448;2022-08-21T06:02:59;3.83;;;3.53;;
19812;SDS011;10066;48.108;11.448;2022-08-21T06:05:27;8.03;;;3.03;;
19812;SDS011;10066;48.108;11.448;2022-08-21T06:07:54;5.70;;;2.77;;
19812;SDS011;10066;48.108;11.448;2022-08-21T06:10:22;3.43;;;2.10;;
19812;SDS011;10066;48.108;11.448;2022-08-21T06:12:52;3.33;;;2.33;;
19812;SDS011;10066;48.108;11.448;2022-08-21T06:15:20;2.57;;;2.13;;
19812;SDS011;10066;48.108;11.448;2022-08-21T06:17:46;2.23;;;2.03;;
19812;SDS011;10066;48.108;11.448;2022-08-21T06:20:13;2.80;;;2.00;;
19812;SDS011;10066;48.108;11.448;2022-08-21T06:22:41;2.73;;;1.97;;
19812;SDS011;10066;48.108;11.448;2022-08-21T06:25:08;3.63;;;2.00;;
19812;SDS011;10066;48.108;11.448;2022-08-21T06:27:36;1.87;;;1.70;;
19812;SDS011;10066;48.108;11.448;2022-08-21T06:30:04;2.73;;;1.97;;
19812;SDS011;10066;48.108;11.448;2022-08-21T06:32:32;5.07;;;2.50;;
19812;SDS011;10066;48.108;11.448;2022-08-21T06:35:00;2.43;;;2.03;;
19812;SDS011;10066;48.108;11.448;2022-08-21T06:37:27;4.77;;;2.20;;
19812;SDS011;10066;48.108;11.448;2022-08-21T06:39:54;3.70;;;2.03;;
19812;SDS011;10066;48.108;11.448;2022-08-21T06:42:21;3.20;;;2.50;;
19812;SDS011;10066;48.108;11.448;2022-08-21T06:44:49;3.90;;;2.37;;
19812;SDS011;10066;48.108;11.448;2022-08-21T06:47:16;4.00;;;2.47;;
19812;SDS011;10066;48.108;11.448;2022-08-21T06:49:43;3.90;;;2.43;;
19812;SDS011;10066;48.108;11.448;2022-08-21T06:52:11;4.50;;;3.10;;
19812;SDS011;10066;48.108;11.448;2022-08-21T06:54:39;5.77;;;2.47;;
19812;SDS011;10066;48.108;11.448;2022-08-21T06:57:05;5.67;;;2.40;;
19812;SDS011;10066;48.108;11.448;2022-08-21T06:59:33;4.63;;;2.37;;
19812;SDS011;10066;48.108;11.448;2022-08-21T07:02:02;3.67;;;2.50;;
19812;SDS011;10066;48.108;11.448;2022-08-21T07:04:29;5.63;;;2.60;;
19812;SDS011;10066;48.108;11.448;2022-08-21T07:06:56;5.13;;;2.23;;
19812;SDS011;10066;48.108;11.448;2022-08-21T07:09:23;3.57;;;2.43;;
19812;SDS011;10066;48.108;11.448;2022-08-21T07:11:51;4.57;;;2.20;;
19812;SDS011;10066;48.108;11.448;2022-08-21T07:14:20;4.13;;;2.40;;
19812;SDS011;10066;48.108;11.448;2022-08-21T07:16:47;5.27;;;2.53;;
19812;SDS011;10066;48.108;11.448;2022-08-21T07:19:17;3.77;;;2.30;;
19812;SDS011;10066;48.108;11.448;2022-08-21T07:21:44;4.13;;;2.40;;
19812;SDS011;10066;48.108;11.448;2022-08-21T07:24:11;3.83;;;2.50;;
19812;SDS011;10066;48.108;11.448;2022-08-21T07:26:39;2.80;;;2.30;;
19812;SDS011;10066;48.108;11.448;2022-08-21T07:29:06;4.43;;;2.10;;
19812;SDS011;10066;48.108;11.448;2022-08-21T07:31:33;3.70;;;2.23;;
19812;SDS011;10066;48.108;11.448;2022-08-21T07:34:00;2.63;;;2.17;;
19812;SDS011;10066;48.108;11.448;2022-08-21T07:36:29;2.40;;;2.10;;
19812;SDS011;10066;48.108;11.448;2022-08-21T07:38:55;3.23;;;2.20;;
19812;SDS011;10066;48.108;11.448;2022-08-21T07:41:24;3.63;;;2.50;;
19812;SDS011;10066;48.108;11.448;2022-08-21T07:43:54;3.93;;;2.40;;
19812;SDS011;10066;48.108;11.448;2022-08-21T07:46:22;3.23;;;1.70;;
19812;SDS011;10066;48.108;11.448;2022-08-21T07:48:50;3.47;;;2.20;;
19812;SDS011;10066;48.108;11.448;2022-08-21T07:51:18;4.13;;;2.33;;
19812;SDS011;10066;48.108;11.448;2022-08-21T07:53:49;4.93;;;2.40;;
19812;SDS011;10066;48.108;11.448;2022-08-21T07:56:16;2.30;;;2.07;;
19812;SDS011;10066;48.108;11.448;2022-08-21T07:58:44;2.80;;;2.30;;
19812;SDS011;10066;48.108;11.448;2022-08-21T08:01:12;3.67;;;2.07;;
19812;SDS011;10066;48.108;11.448;2022-08-21T08:03:39;5.43;;;2.40;;
19812;SDS011;10066;48.108;11.448;2022-08-21T08:06:06;4.43;;;2.10;;
19812;SDS011;10066;48.108;11.448;2022-08-21T08:08:37;2.57;;;2.20;;
19812;SDS011;10066;48.108;11.448;2022-08-21T08:11:07;2.70;;;2.23;;
19812;SDS011;10066;48.108;11.448;2022-08-21T08:13:37;4.80;;;2.20;;
19812;SDS011;10066;48.108;11.448;2022-08-21T08:16:05;3.57;;;2.23;;
19812;SDS011;10066;48.108;11.448;2022-08-21T08:18:32;3.00;;;2.40;;
19812;SDS011;10066;48.108;11.448;2022-08-21T08:20:59;3.30;;;2.13;;
19812;SDS011;10066;48.108;11.448;2022-08-21T08:23:26;5.10;;;2.77;;
19812;SDS011;10066;48.108;11.448;2022-08-21T08:25:55;3.70;;;2.70;;
19812;SDS011;10066;48.108;11.448;2022-08-21T08:28:24;3.60;;;2.37;;
19812;SDS011;10066;48.108;11.448;2022-08-21T08:30:52;6.20;;;2.50;;
19812;SDS011;10066;48.108;11.448;2022-08-21T08:33:19;4.27;;;2.40;;
19812;SDS011;10066;48.108;11.448;2022-08-21T08:35:46;4.23;;;2.70;;
19812;SDS011;10066;48.108;11.448;2022-08-21T08:38:15;3.47;;;2.53;;
19812;SDS011;10066;48.108;11.448;2022-08-21T08:40:45;4.07;;;2.53;;
19812;SDS011;10066;48.108;11.448;2022-08-21T08:43:19;2.93;;;2.57;;
19812;SDS011;10066;48.108;11.448;2022-08-21T08:45:50;4.70;;;2.47;;
19812;SDS011;10066;48.108;11.448;2022-08-21T08:48:26;5.13;;;2.47;;
19812;SDS011;10066;48.108;11.448;2022-08-21T08:51:02;5.40;;;2.27;;
19812;SDS011;10066;48.108;11.448;2022-08-21T08:53:36;4.17;;;2.60;;
19812;SDS011;10066;48.108;11.448;2022-08-21T08:56:12;3.20;;;2.70;;
19812;SDS011;10066;48.108;11.448;2022-08-21T08:58:40;6.83;;;2.87;;
19812;SDS011;10066;48.108;11.448;2022-08-21T09:01:13;3.17;;;2.50;;
19812;SDS011;10066;48.108;11.448;2022-08-21T09:03:43;5.93;;;2.30;;
19812;SDS011;10066;48.108;11.448;2022-08-21T09:06:17;4.00;;;2.67;;
19812;SDS011;10066;48.108;11.448;2022-08-21T09:08:54;3.73;;;2.83;;
19812;SDS011;10066;48.108;11.448;2022-08-21T09:11:28;4.07;;;2.50;;
19812;SDS011;10066;48.108;11.448;2022-08-21T09:14:00;4.03;;;2.67;;
19812;SDS011;10066;48.108;11.448;2022-08-21T09:16:40;3.07;;;2.33;;
19812;SDS011;10066;48.108;11.448;2022-08-21T09:19:17;2.40;;;2.20;;
19812;SDS011;10066;48.108;11.448;2022-08-21T09:21:58;3.17;;;2.33;;
19812;SDS011;10066;48.108;11.448;2022-08-21T09:24:37;3.43;;;2.53;;
19812;SDS011;10066;48.108;11.448;2022-08-21T09:27:14;3.13;;;2.60;;
19812;SDS011;10066;48.108;11.448;2022-08-21T09:29:43;3.57;;;2.47;;
19812;SDS011;10066;48.108;11.448;2022-08-21T09:32:14;4.33;;;2.17;;
19812;SDS011;10066;48.108;11.448;2022-08-21T09:34:54;4.60;;;2.50;;
19812;SDS011;10066;48.108;11.448;2022-08-21T09:37:23;3.17;;;2.60;;
19812;SDS011;10066;48.108;11.448;2022-08-21T09:39:50;2.23;;;2.03;;
19812;SDS011;10066;48.108;11.448;2022-08-21T09:42:21;3.53;;;2.03;;
19812;SDS011;10066;48.108;11.448;2022-08-21T09:45:00;7.00;;;2.47;;
19812;SDS011;10066;48.108;11.448;2022-08-21T09:47:34;2.30;;;2.07;;
19812;SDS011;10066;48.108;11.448;2022-08-21T09:50:09;3.00;;;1.83;;
19812;SDS011;10066;48.108;11.448;2022-08-21T09:52:42;3.50;;;2.03;;
19812;SDS011;10066;48.108;11.448;2022-08-21T09:55:14;2.93;;;2.20;;
19812;SDS011;10066;48.108;11.448;2022-08-21T09:57:59;7.93;;;2.77;;
19812;SDS011;10066;48.108;11.448;2022-08-21T10:00:28;2.43;;;2.07;;
19812;SDS011;10066;48.108;11.448;2022-08-21T10:03:09;3.00;;;1.87;;
19812;SDS011;10066;48.108;11.448;2022-08-21T10:05:38;3.27;;;1.70;;
19812;SDS011;10066;48.108;11.448;2022-08-21T10:08:15;2.60;;;1.90;;
19812;SDS011;10066;48.108;11.448;2022-08-21T10:10:43;2.87;;;1.80;;
19812;SDS011;10066;48.108;11.448;2022-08-21T10:13:12;2.27;;;1.80;;
19812;SDS011;10066;48.108;11.448;2022-08-21T10:15:46;4.47;;;2.40;;
19812;SDS011;10066;48.108;11.448;2022-08-21T10:18:27;2.53;;;1.90;;
19812;SDS011;10066;48.108;11.448;2022-08-21T10:21:04;3.03;;;2.40;;
19812;SDS011;10066;48.108;11.448;2022-08-21T10:23:44;3.90;;;2.10;;
19812;SDS011;10066;48.108;11.448;2022-08-21T10:26:25;2.50;;;1.93;;
19812;SDS011;10066;48.108;11.448;2022-08-21T10:29:03;3.33;;;2.20;;
19812;SDS011;10066;48.108;11.448;2022-08-21T10:31:37;2.70;;;2.10;;
19812;SDS011;10066;48.108;11.448;2022-08-21T10:34:18;4.50;;;2.27;;
19812;SDS011;10066;48.108;11.448;2022-08-21T10:37:07;2.80;;;1.90;;
19812;SDS011;10066;48.108;11.448;2022-08-21T10:39:44;2.23;;;1.83;;
19812;SDS011;10066;48.108;11.448;2022-08-21T10:42:27;3.20;;;2.20;;
19812;SDS011;10066;48.108;11.448;2022-08-21T10:45:11;2.97;;;2.03;;
19812;SDS011;10066;48.108;11.448;2022-08-21T10:47:46;2.90;;;2.00;;
19812;SDS011;10066;48.108;11.448;2022-08-21T10:50:19;4.23;;;2.20;;
19812;SDS011;10066;48.108;11.448;2022-08-21T10:55:56;3.10;;;1.80;;
19812;SDS011;10066;48.108;11.448;2022-08-21T10:58:29;2.53;;;2.10;;
19812;SDS011;10066;48.108;11.448;2022-08-21T11:00:58;3.97;;;2.40;;
19812;SDS011;10066;48.108;11.448;2022-08-21T11:03:36;2.67;;;2.43;;
19812;SDS011;10066;48.108;11.448;2022-08-21T11:06:08;3.87;;;1.93;;
19812;SDS011;10066;48.108;11.448;2022-08-21T11:08:41;3.63;;;2.07;;
19812;SDS011;10066;48.108;11.448;2022-08-21T11:11:10;3.37;;;2.10;;
19812;SDS011;10066;48.108;11.448;2022-08-21T11:13:41;3.13;;;2.10;;
19812;SDS011;10066;48.108;11.448;2022-08-21T11:16:12;3.03;;;2.10;;
19812;SDS011;10066;48.108;11.448;2022-08-21T11:18:47;2.87;;;1.97;;
19812;SDS011;10066;48.108;11.448;2022-08-21T11:21:25;2.20;;;2.00;;
19812;SDS011;10066;48.108;11.448;2022-08-21T11:24:00;3.03;;;1.87;;
19812;SDS011;10066;48.108;11.448;2022-08-21T11:26:32;3.13;;;1.53;;
19812;SDS011;10066;48.108;11.448;2022-08-21T11:29:04;1.70;;;1.60;;
19812;SDS011;10066;48.108;11.448;2022-08-21T11:31:41;3.43;;;1.73;;
19812;SDS011;10066;48.108;11.448;2022-08-21T11:34:28;2.43;;;1.90;;
19812;SDS011;10066;48.108;11.448;2022-08-21T11:37:16;2.10;;;1.90;;
19812;SDS011;10066;48.108;11.448;2022-08-21T11:39:50;2.93;;;2.40;;
19812;SDS011;10066;48.108;11.448;2022-08-21T11:42:24;2.77;;;2.23;;
19812;SDS011;10066;48.108;11.448;2022-08-21T11:45:03;2.67;;;1.80;;
19812;SDS011;10066;48.108;11.448;2022-08-21T11:47:45;2.93;;;1.77;;
19812;SDS011;10066;48.108;11.448;2022-08-21T11:50:21;1.90;;;1.80;;
19812;SDS011;10066;48.108;11.448;2022-08-21T11:52:54;3.10;;;1.87;;
19812;SDS011;10066;48.108;11.448;2022-08-21T11:55:29;4.23;;;2.10;;
19812;SDS011;10066;48.108;11.448;2022-08-21T11:58:02;4.27;;;2.00;;
19812;SDS011;10066;48.108;11.448;2022-08-21T12:00:33;1.87;;;1.47;;
19812;SDS011;10066;48.108;11.448;2022-08-21T12:03:07;4.20;;;1.50;;
19812;SDS011;10066;48.108;11.448;2022-08-21T12:05:38;4.30;;;1.70;;
19812;SDS011;10066;48.108;11.448;2022-08-21T12:08:10;2.90;;;1.70;;
19812;SDS011;10066;48.108;11.448;2022-08-21T12:10:40;1.73;;;1.60;;
19812;SDS011;10066;48.108;11.448;2022-08-21T12:13:22;2.40;;;1.63;;
19812;SDS011;10066;48.108;11.448;2022-08-21T12:15:52;2.70;;;1.70;;
19812;SDS011;10066;48.108;11.448;2022-08-21T12:18:21;3.40;;;1.90;;
19812;SDS011;10066;48.108;11.448;2022-08-21T12:20:57;6.23;;;2.00;;
19812;SDS011;10066;48.108;11.448;2022-08-21T12:23:32;2.57;;;1.60;;
19812;SDS011;10066;48.108;11.448;2022-08-21T12:26:13;2.67;;;1.67;;
19812;SDS011;10066;48.108;11.448;2022-08-21T12:29:02;2.90;;;2.00;;
19812;SDS011;10066;48.108;11.448;2022-08-21T12:31:31;3.10;;;1.80;;
19812;SDS011;10066;48.108;11.448;2022-08-21T12:34:01;2.10;;;1.90;;
19812;SDS011;10066;48.108;11.448;2022-08-21T12:36:38;2.40;;;2.03;;
19812;SDS011;10066;48.108;11.448;2022-08-21T12:39:12;3.37;;;1.93;;
19812;SDS011;10066;48.108;11.448;2022-08-21T12:41:46;4.00;;;2.00;;
19812;SDS011;10066;48.108;11.448;2022-08-21T12:44:18;2.17;;;1.70;;
19812;SDS011;10066;48.108;11.448;2022-08-21T12:46:54;3.33;;;2.00;;
19812;SDS011;10066;48.108;11.448;2022-08-21T12:49:26;2.13;;;1.90;;
19812;SDS011;10066;48.108;11.448;2022-08-21T12:51:59;1.90;;;1.80;;
19812;SDS011;10066;48.108;11.448;2022-08-21T12:54:36;3.13;;;1.83;;
19812;SDS011;10066;48.108;11.448;2022-08-21T12:57:05;2.57;;;1.77;;
19812;SDS011;10066;48.108;11.448;2022-08-21T12:59:36;2.63;;;1.77;;
19812;SDS011;10066;48.108;11.448;2022-08-21T13:02:05;2.20;;;1.80;;
19812;SDS011;10066;48.108;11.448;2022-08-21T13:04:41;3.17;;;2.17;;
19812;SDS011;10066;48.108;11.448;2022-08-21T13:07:10;2.60;;;2.13;;
19812;SDS011;10066;48.108;11.448;2022-08-21T13:09:41;2.00;;;1.80;;
19812;SDS011;10066;48.108;11.448;2022-08-21T13:12:13;3.03;;;2.00;;
19812;SDS011;10066;48.108;11.448;2022-08-21T13:14:41;1.90;;;1.60;;
19812;SDS011;10066;48.108;11.448;2022-08-21T13:17:11;3.70;;;1.70;;
19812;SDS011;10066;48.108;11.448;2022-08-21T13:19:40;2.13;;;1.77;;
19812;SDS011;10066;48.108;11.448;2022-08-21T13:22:11;3.03;;;1.87;;
19812;SDS011;10066;48.108;11.448;2022-08-21T13:24:41;1.83;;;1.70;;
19812;SDS011;10066;48.108;11.448;2022-08-21T13:27:16;2.00;;;1.80;;
19812;SDS011;10066;48.108;11.448;2022-08-21T13:29:59;2.47;;;1.87;;
19812;SDS011;10066;48.108;11.448;2022-08-21T13:32:29;3.60;;;1.80;;
19812;SDS011;10066;48.108;11.448;2022-08-21T13:34:59;3.20;;;2.07;;
19812;SDS011;10066;48.108;11.448;2022-08-21T13:37:33;2.53;;;1.83;;
19812;SDS011;10066;48.108;11.448;2022-08-21T13:40:02;2.57;;;1.93;;
19812;SDS011;10066;48.108;11.448;2022-08-21T13:42:34;4.60;;;1.80;;
19812;SDS011;10066;48.108;11.448;2022-08-21T13:45:01;2.83;;;1.90;;
19812;SDS011;10066;48.108;11.448;2022-08-21T13:47:29;2.43;;;2.00;;
19812;SDS011;10066;48.108;11.448;2022-08-21T13:49:56;5.00;;;2.00;;
19812;SDS011;10066;48.108;11.448;2022-08-21T13:52:24;2.70;;;1.90;;
19812;SDS011;10066;48.108;11.448;2022-08-21T13:54:53;2.23;;;2.00;;
19812;SDS011;10066;48.108;11.448;2022-08-21T13:57:26;3.27;;;1.50;;
19812;SDS011;10066;48.108;11.448;2022-08-21T14:00:09;1.70;;;1.60;;
19812;SDS011;10066;48.108;11.448;2022-08-21T14:02:38;2.30;;;1.67;;
19812;SDS011;10066;48.108;11.448;2022-08-21T14:05:10;2.30;;;1.80;;
19812;SDS011;10066;48.108;11.448;2022-08-21T14:07:42;7.40;;;2.00;;
19812;SDS011;10066;48.108;11.448;2022-08-21T14:10:11;3.30;;;1.90;;
19812;SDS011;10066;48.108;11.448;2022-08-21T14:12:43;1.90;;;1.70;;
19812;SDS011;10066;48.108;11.448;2022-08-21T14:15:13;3.30;;;2.00;;
19812;SDS011;10066;48.108;11.448;2022-08-21T14:17:41;2.20;;;2.00;;
19812;SDS011;10066;48.108;11.448;2022-08-21T14:20:10;2.73;;;1.73;;
19812;SDS011;10066;48.108;11.448;2022-08-21T14:22:40;3.23;;;1.90;;
19812;SDS011;10066;48.108;11.448;2022-08-21T14:25:10;4.07;;;1.83;;
19812;SDS011;10066;48.108;11.448;2022-08-21T14:27:44;4.00;;;1.87;;
19812;SDS011;10066;48.108;11.448;2022-08-21T14:30:19;3.27;;;1.60;;
19812;SDS011;10066;48.108;11.448;2022-08-21T14:32:48;2.43;;;1.53;;
19812;SDS011;10066;48.108;11.448;2022-08-21T14:35:15;2.43;;;1.70;;
19812;SDS011;10066;48.108;11.448;2022-08-21T14:37:42;2.23;;;1.50;;
19812;SDS011;10066;48.108;11.448;2022-08-21T14:40:10;1.87;;;1.67;;
19812;SDS011;10066;48.108;11.448;2022-08-21T14:42:37;4.83;;;1.47;;
19812;SDS011;10066;48.108;11.448;2022-08-21T14:45:10;2.57;;;1.70;;
19812;SDS011;10066;48.108;11.448;2022-08-21T14:47:41;3.77;;;1.70;;
19812;SDS011;10066;48.108;11.448;2022-08-21T14:50:09;3.70;;;1.43;;
19812;SDS011;10066;48.108;11.448;2022-08-21T14:52:37;2.87;;;1.80;;